OOEHY CYYQ-CYEG
Flight info
| Callsign | OOEHY |
|---|---|
| Flight time | N/A |
| Altitude | 4000 |
| Route | YYQ J539 POLLE DCT LIBUB DCT REFEX DCT CAMRA IGSOX3 |
| Aircraft | C172/L-SFG/C |
Departure
| Time | 2026-04-22 08:29 |
|---|---|
| Airport | Churchill Airport (CYYQ) |
Arrival
| Time | N/A |
|---|---|
| Airport | Edmonton International Airport (CYEG) |
| Time | Latitude | Longitude | Altitude | Speed | Heading |
|---|---|---|---|---|---|
| 2026-04-22 08:25 | 58.74612 | -94.07394 | 74 ft | 9 kts | 210° |
| 2026-04-22 08:25 | 58.74565 | -94.07453 | 73 ft | 7 kts | 241° |
| 2026-04-22 08:25 | 58.74543 | -94.07524 | 73 ft | 5 kts | 245° |
| 2026-04-22 08:26 | 58.74522 | -94.07606 | 72 ft | 9 kts | 241° |
| 2026-04-22 08:26 | 58.74472 | -94.07682 | 71 ft | 7 kts | 295° |
| 2026-04-22 08:26 | 58.74478 | -94.07691 | 71 ft | 0 kts | 344° |
| 2026-04-22 08:26 | 58.74480 | -94.07693 | 71 ft | 6 kts | 341° |
| 2026-04-22 08:27 | 58.74674 | -94.07887 | 95 ft | 47 kts | 330° |
| 2026-04-22 08:27 | 58.74843 | -94.08480 | 164 ft | 73 kts | 265° |
| 2026-04-22 08:27 | 58.74559 | -94.09503 | 226 ft | 93 kts | 258° |
| 2026-04-22 08:27 | 58.74391 | -94.10748 | 337 ft | 98 kts | 271° |
| 2026-04-22 08:28 | 58.74285 | -94.12087 | 400 ft | 102 kts | 271° |
| 2026-04-22 08:28 | 58.74173 | -94.13464 | 478 ft | 106 kts | 265° |
| 2026-04-22 08:28 | 58.73907 | -94.14834 | 557 ft | 110 kts | 256° |
| 2026-04-22 08:28 | 58.73601 | -94.16182 | 638 ft | 111 kts | 255° |
| 2026-04-22 08:29 | 58.73285 | -94.17561 | 720 ft | 112 kts | 254° |
| 2026-04-22 08:29 | 58.72978 | -94.18887 | 788 ft | 106 kts | 252° |
| 2026-04-22 08:29 | 58.72674 | -94.20191 | 871 ft | 101 kts | 254° |
| 2026-04-22 08:29 | 58.72419 | -94.21275 | 889 ft | 78 kts | 254° |
| 2026-04-22 08:30 | 58.72161 | -94.22265 | 1050 ft | 82 kts | 245° |
| 2026-04-22 08:30 | 58.71957 | -94.23038 | 1204 ft | 81 kts | 246° |
| 2026-04-22 08:30 | 58.71821 | -94.23563 | 1306 ft | 81 kts | 246° |
| 2026-04-22 08:30 | 58.71578 | -94.24530 | 1491 ft | 81 kts | 247° |
| 2026-04-22 08:31 | 58.71340 | -94.25499 | 1671 ft | 80 kts | 251° |
| 2026-04-22 08:31 | 58.71120 | -94.26484 | 1838 ft | 81 kts | 250° |
| 2026-04-22 08:31 | 58.70828 | -94.27804 | 2045 ft | 83 kts | 251° |
| 2026-04-22 08:32 | 58.70660 | -94.28557 | 2197 ft | 82 kts | 250° |
| 2026-04-22 08:32 | 58.70528 | -94.29138 | 2293 ft | 83 kts | 250° |
| 2026-04-22 08:32 | 58.70290 | -94.30149 | 2465 ft | 82 kts | 247° |
| 2026-04-22 08:32 | 58.70052 | -94.31165 | 2633 ft | 82 kts | 251° |
| 2026-04-22 08:33 | 58.69817 | -94.32195 | 2776 ft | 85 kts | 251° |
| 2026-04-22 08:33 | 58.69577 | -94.33244 | 2937 ft | 85 kts | 252° |
| 2026-04-22 08:33 | 58.69338 | -94.34288 | 3097 ft | 86 kts | 252° |
| 2026-04-22 08:33 | 58.69093 | -94.35345 | 3258 ft | 85 kts | 252° |
| 2026-04-22 08:34 | 58.68855 | -94.36389 | 3408 ft | 86 kts | 249° |
| 2026-04-22 08:34 | 58.68611 | -94.37440 | 3555 ft | 87 kts | 249° |
| 2026-04-22 08:34 | 58.68365 | -94.38506 | 3708 ft | 87 kts | 251° |
| 2026-04-22 08:34 | 58.68114 | -94.39586 | 3853 ft | 88 kts | 249° |
| 2026-04-22 08:35 | 58.67864 | -94.40662 | 3996 ft | 88 kts | 248° |
| 2026-04-22 08:35 | 58.67612 | -94.41728 | 4145 ft | 87 kts | 253° |
| 2026-04-22 08:35 | 58.67362 | -94.42802 | 4272 ft | 89 kts | 249° |
| 2026-04-22 08:35 | 58.67106 | -94.43878 | 4422 ft | 88 kts | 247° |
| 2026-04-22 08:36 | 58.66854 | -94.44945 | 4555 ft | 88 kts | 250° |
| 2026-04-22 08:36 | 58.66601 | -94.46014 | 4686 ft | 88 kts | 249° |
| 2026-04-22 08:36 | 58.66353 | -94.47073 | 4820 ft | 88 kts | 253° |
| 2026-04-22 08:36 | 58.66115 | -94.48172 | 4939 ft | 89 kts | 251° |
| 2026-04-22 08:37 | 58.65880 | -94.49262 | 5066 ft | 88 kts | 252° |
| 2026-04-22 08:37 | 58.65649 | -94.50332 | 5192 ft | 87 kts | 250° |
| 2026-04-22 08:37 | 58.65417 | -94.51414 | 5303 ft | 87 kts | 251° |
| 2026-04-22 08:37 | 58.65189 | -94.52497 | 5425 ft | 86 kts | 254° |
| 2026-04-22 08:38 | 58.64975 | -94.53565 | 5542 ft | 86 kts | 255° |
| 2026-04-22 08:38 | 58.64759 | -94.54644 | 5628 ft | 87 kts | 254° |
| 2026-04-22 08:38 | 58.64537 | -94.55730 | 5725 ft | 87 kts | 252° |
| 2026-04-22 08:38 | 58.64321 | -94.56799 | 5827 ft | 86 kts | 254° |
| 2026-04-22 08:39 | 58.64099 | -94.57875 | 5913 ft | 87 kts | 252° |
| 2026-04-22 08:39 | 58.63873 | -94.58953 | 6001 ft | 87 kts | 252° |
| 2026-04-22 08:39 | 58.63646 | -94.60048 | 6094 ft | 87 kts | 252° |
| 2026-04-22 08:39 | 58.63425 | -94.61125 | 6186 ft | 87 kts | 256° |
| 2026-04-22 08:40 | 58.63207 | -94.62208 | 6278 ft | 87 kts | 252° |
| 2026-04-22 08:40 | 58.62986 | -94.63274 | 6358 ft | 87 kts | 251° |
| 2026-04-22 08:40 | 58.62764 | -94.64360 | 6447 ft | 87 kts | 251° |
| 2026-04-22 08:40 | 58.62545 | -94.65444 | 6539 ft | 87 kts | 251° |
| 2026-04-22 08:41 | 58.62465 | -94.65826 | 6560 ft | 88 kts | 251° |
| 2026-04-22 08:41 | 58.62237 | -94.66918 | 6647 ft | 88 kts | 251° |
| 2026-04-22 08:41 | 58.62013 | -94.67998 | 6727 ft | 88 kts | 251° |
| 2026-04-22 08:41 | 58.61788 | -94.69090 | 6817 ft | 87 kts | 253° |
| 2026-04-22 08:42 | 58.61568 | -94.70171 | 6894 ft | 87 kts | 254° |
| 2026-04-22 08:42 | 58.61345 | -94.71252 | 6976 ft | 87 kts | 255° |
| 2026-04-22 08:42 | 58.61121 | -94.72344 | 7049 ft | 88 kts | 252° |
| 2026-04-22 08:42 | 58.60892 | -94.73444 | 7130 ft | 88 kts | 251° |
| 2026-04-22 08:43 | 58.60665 | -94.74532 | 7202 ft | 88 kts | 252° |
| 2026-04-22 08:43 | 58.60443 | -94.75616 | 7285 ft | 87 kts | 256° |
| 2026-04-22 08:43 | 58.60220 | -94.76711 | 7352 ft | 89 kts | 251° |
| 2026-04-22 08:43 | 58.59990 | -94.77811 | 7431 ft | 88 kts | 250° |
| 2026-04-22 08:44 | 58.59767 | -94.78893 | 7503 ft | 88 kts | 254° |
| 2026-04-22 08:44 | 58.59542 | -94.79993 | 7585 ft | 87 kts | 252° |
| 2026-04-22 08:44 | 58.59315 | -94.81093 | 7653 ft | 88 kts | 255° |
| 2026-04-22 08:44 | 58.59088 | -94.82187 | 7719 ft | 88 kts | 251° |
| 2026-04-22 08:45 | 58.58859 | -94.83282 | 7792 ft | 88 kts | 250° |
| 2026-04-22 08:45 | 58.58629 | -94.84383 | 7857 ft | 88 kts | 250° |
| 2026-04-22 08:45 | 58.58404 | -94.85474 | 7932 ft | 88 kts | 251° |
| 2026-04-22 08:45 | 58.58173 | -94.86575 | 7992 ft | 88 kts | 250° |
| 2026-04-22 08:46 | 58.57943 | -94.87676 | 8055 ft | 89 kts | 250° |
| 2026-04-22 08:46 | 58.57714 | -94.88772 | 8119 ft | 89 kts | 251° |
| 2026-04-22 08:46 | 58.57485 | -94.89877 | 8183 ft | 89 kts | 250° |
| 2026-04-22 08:46 | 58.57264 | -94.90962 | 8258 ft | 88 kts | 252° |
| 2026-04-22 08:47 | 58.57037 | -94.92059 | 8314 ft | 89 kts | 250° |
| 2026-04-22 08:47 | 58.56800 | -94.93162 | 8371 ft | 89 kts | 250° |
| 2026-04-22 08:47 | 58.56565 | -94.94252 | 8429 ft | 89 kts | 250° |
| 2026-04-22 08:47 | 58.56327 | -94.95357 | 8489 ft | 89 kts | 250° |
| 2026-04-22 08:48 | 58.56090 | -94.96449 | 8547 ft | 89 kts | 250° |
| 2026-04-22 08:48 | 58.55850 | -94.97560 | 8605 ft | 89 kts | 250° |
| 2026-04-22 08:48 | 58.55614 | -94.98657 | 8662 ft | 89 kts | 250° |
| 2026-04-22 08:48 | 58.55378 | -94.99763 | 8718 ft | 89 kts | 250° |
| 2026-04-22 08:49 | 58.55143 | -95.00862 | 8773 ft | 89 kts | 250° |
| 2026-04-22 08:49 | 58.54907 | -95.01976 | 8828 ft | 89 kts | 250° |
| 2026-04-22 08:49 | 58.54674 | -95.03076 | 8881 ft | 89 kts | 250° |
| 2026-04-22 08:49 | 58.54440 | -95.04183 | 8934 ft | 89 kts | 250° |
| 2026-04-22 08:50 | 58.54205 | -95.05296 | 8978 ft | 91 kts | 250° |
| 2026-04-22 08:50 | 58.53967 | -95.06449 | 8987 ft | 95 kts | 251° |
| 2026-04-22 08:50 | 58.53726 | -95.07656 | 8991 ft | 100 kts | 253° |
| 2026-04-22 08:50 | 58.53471 | -95.08950 | 8987 ft | 106 kts | 253° |
| 2026-04-22 08:51 | 58.53208 | -95.10297 | 8985 ft | 111 kts | 253° |
| 2026-04-22 08:51 | 58.52931 | -95.11723 | 8984 ft | 116 kts | 253° |
| 2026-04-22 08:51 | 58.52647 | -95.13179 | 8983 ft | 119 kts | 254° |
| 2026-04-22 08:51 | 58.52351 | -95.14688 | 8980 ft | 122 kts | 254° |
| 2026-04-22 08:52 | 58.52045 | -95.16232 | 8978 ft | 124 kts | 254° |
| 2026-04-22 08:52 | 58.51733 | -95.17793 | 8976 ft | 126 kts | 253° |
| 2026-04-22 08:52 | 58.51419 | -95.19342 | 8975 ft | 127 kts | 253° |
| 2026-04-22 08:52 | 58.51096 | -95.20921 | 8974 ft | 127 kts | 253° |
| 2026-04-22 08:53 | 58.50769 | -95.22508 | 8972 ft | 128 kts | 253° |
| 2026-04-22 08:53 | 58.50443 | -95.24076 | 8971 ft | 128 kts | 253° |
| 2026-04-22 08:53 | 58.50111 | -95.25669 | 8970 ft | 128 kts | 253° |
| 2026-04-22 08:53 | 58.49781 | -95.27237 | 8969 ft | 128 kts | 252° |
| 2026-04-22 08:54 | 58.49447 | -95.28827 | 8968 ft | 128 kts | 252° |
| 2026-04-22 08:54 | 58.49112 | -95.30416 | 8966 ft | 128 kts | 252° |
| 2026-04-22 08:54 | 58.48777 | -95.31998 | 8965 ft | 128 kts | 252° |
| 2026-04-22 08:54 | 58.48445 | -95.33562 | 8963 ft | 128 kts | 252° |
| 2026-04-22 08:55 | 58.48108 | -95.35148 | 8963 ft | 128 kts | 252° |
| 2026-04-22 08:55 | 58.47772 | -95.36731 | 8961 ft | 128 kts | 252° |
| 2026-04-22 08:55 | 58.47438 | -95.38299 | 8959 ft | 128 kts | 252° |
| 2026-04-22 08:55 | 58.47099 | -95.39890 | 8958 ft | 128 kts | 252° |
| 2026-04-22 08:56 | 58.46760 | -95.41484 | 8956 ft | 128 kts | 252° |
| 2026-04-22 08:56 | 58.46427 | -95.43046 | 8955 ft | 128 kts | 252° |
| 2026-04-22 08:56 | 58.46088 | -95.44633 | 8953 ft | 128 kts | 252° |
| 2026-04-22 08:56 | 58.45753 | -95.46202 | 8952 ft | 128 kts | 252° |
| 2026-04-22 08:57 | 58.45412 | -95.47794 | 8951 ft | 128 kts | 252° |
| 2026-04-22 08:57 | 58.45077 | -95.49359 | 8949 ft | 128 kts | 252° |
| 2026-04-22 08:57 | 58.44737 | -95.50946 | 8947 ft | 128 kts | 252° |
| 2026-04-22 08:57 | 58.44403 | -95.52505 | 8946 ft | 128 kts | 252° |
| 2026-04-22 08:58 | 58.44064 | -95.54086 | 8945 ft | 128 kts | 252° |
| 2026-04-22 08:58 | 58.43725 | -95.55667 | 8944 ft | 128 kts | 252° |
| 2026-04-22 08:58 | 58.43389 | -95.57230 | 8943 ft | 128 kts | 252° |
| 2026-04-22 08:58 | 58.43047 | -95.58825 | 8942 ft | 128 kts | 252° |
| 2026-04-22 08:59 | 58.42710 | -95.60388 | 8941 ft | 128 kts | 252° |
| 2026-04-22 08:59 | 58.42369 | -95.61974 | 8940 ft | 128 kts | 252° |
| 2026-04-22 08:59 | 58.42033 | -95.63532 | 8939 ft | 128 kts | 252° |
| 2026-04-22 08:59 | 58.41693 | -95.65111 | 8938 ft | 128 kts | 251° |
| 2026-04-22 09:00 | 58.41356 | -95.66670 | 8938 ft | 128 kts | 251° |
| 2026-04-22 09:00 | 58.41015 | -95.68250 | 8937 ft | 128 kts | 251° |
| 2026-04-22 09:00 | 58.40675 | -95.69824 | 8939 ft | 128 kts | 251° |
| 2026-04-22 09:00 | 58.40339 | -95.71375 | 8936 ft | 128 kts | 251° |
| 2026-04-22 09:01 | 58.39997 | -95.72955 | 8934 ft | 128 kts | 251° |
| 2026-04-22 09:01 | 58.39656 | -95.74532 | 8933 ft | 128 kts | 251° |
| 2026-04-22 09:01 | 58.39319 | -95.76086 | 8931 ft | 128 kts | 251° |
| 2026-04-22 09:01 | 58.38977 | -95.77660 | 8930 ft | 128 kts | 251° |
| 2026-04-22 09:02 | 58.38638 | -95.79223 | 8929 ft | 128 kts | 251° |
| 2026-04-22 09:02 | 58.38295 | -95.80802 | 8927 ft | 128 kts | 251° |
| 2026-04-22 09:02 | 58.37957 | -95.82358 | 8926 ft | 128 kts | 251° |
| 2026-04-22 09:02 | 58.37614 | -95.83932 | 8924 ft | 128 kts | 251° |
| 2026-04-22 09:03 | 58.37273 | -95.85503 | 8923 ft | 128 kts | 251° |
| 2026-04-22 09:03 | 58.36930 | -95.87076 | 8922 ft | 128 kts | 251° |
| 2026-04-22 09:03 | 58.36591 | -95.88631 | 8920 ft | 128 kts | 250° |
| 2026-04-22 09:03 | 58.36247 | -95.90205 | 8921 ft | 128 kts | 250° |
| 2026-04-22 09:04 | 58.36123 | -95.90773 | 8919 ft | 128 kts | 251° |
| 2026-04-22 09:04 | 58.35779 | -95.92343 | 8920 ft | 128 kts | 250° |
| 2026-04-22 09:04 | 58.35440 | -95.93896 | 8916 ft | 128 kts | 251° |
| 2026-04-22 09:04 | 58.35094 | -95.95475 | 8915 ft | 128 kts | 251° |
| 2026-04-22 09:05 | 58.34754 | -95.97028 | 8913 ft | 128 kts | 251° |
| 2026-04-22 09:05 | 58.34414 | -95.98582 | 8912 ft | 128 kts | 250° |
| 2026-04-22 09:05 | 58.34070 | -96.00150 | 8911 ft | 128 kts | 250° |
| 2026-04-22 09:05 | 58.33726 | -96.01717 | 8910 ft | 128 kts | 250° |
| 2026-04-22 09:06 | 58.33383 | -96.03278 | 8913 ft | 128 kts | 250° |
| 2026-04-22 09:06 | 58.33042 | -96.04829 | 8909 ft | 128 kts | 250° |
| 2026-04-22 09:06 | 58.32697 | -96.06396 | 8903 ft | 128 kts | 250° |
| 2026-04-22 09:06 | 58.32354 | -96.07955 | 8899 ft | 127 kts | 250° |
| 2026-04-22 09:07 | 58.32014 | -96.09495 | 8899 ft | 126 kts | 250° |
| 2026-04-22 09:07 | 58.31673 | -96.11038 | 8899 ft | 126 kts | 250° |
| 2026-04-22 09:07 | 58.31330 | -96.12585 | 8904 ft | 126 kts | 250° |
| 2026-04-22 09:07 | 58.30990 | -96.14123 | 8906 ft | 126 kts | 250° |
| 2026-04-22 09:08 | 58.30653 | -96.15649 | 8905 ft | 127 kts | 250° |
| 2026-04-22 09:08 | 58.30310 | -96.17199 | 8909 ft | 127 kts | 251° |
| 2026-04-22 09:08 | 58.29964 | -96.18769 | 8904 ft | 127 kts | 251° |
| 2026-04-22 09:08 | 58.29621 | -96.20318 | 8903 ft | 128 kts | 251° |
| 2026-04-22 09:09 | 58.29281 | -96.21859 | 8902 ft | 128 kts | 251° |
| 2026-04-22 09:09 | 58.28932 | -96.23431 | 8901 ft | 128 kts | 251° |
| 2026-04-22 09:09 | 58.28590 | -96.24976 | 8900 ft | 128 kts | 250° |
| 2026-04-22 09:09 | 58.28243 | -96.26537 | 8898 ft | 128 kts | 250° |
| 2026-04-22 09:10 | 58.27900 | -96.28084 | 8897 ft | 128 kts | 250° |
| 2026-04-22 09:10 | 58.27552 | -96.29647 | 8896 ft | 128 kts | 250° |
| 2026-04-22 09:10 | 58.27208 | -96.31192 | 8896 ft | 128 kts | 250° |
| 2026-04-22 09:10 | 58.26864 | -96.32735 | 8912 ft | 127 kts | 250° |
| 2026-04-22 09:11 | 58.26518 | -96.34282 | 8931 ft | 126 kts | 250° |
| 2026-04-22 09:11 | 58.26174 | -96.35814 | 8951 ft | 125 kts | 250° |
| 2026-04-22 09:11 | 58.25837 | -96.37319 | 8969 ft | 125 kts | 250° |
| 2026-04-22 09:11 | 58.25493 | -96.38856 | 8972 ft | 126 kts | 250° |
| 2026-04-22 09:12 | 58.25152 | -96.40379 | 8972 ft | 126 kts | 250° |
| 2026-04-22 09:12 | 58.24808 | -96.41919 | 8970 ft | 127 kts | 251° |
| 2026-04-22 09:12 | 58.24461 | -96.43475 | 8969 ft | 127 kts | 251° |
| 2026-04-22 09:12 | 58.24116 | -96.45019 | 8968 ft | 127 kts | 251° |
| 2026-04-22 09:13 | 58.23769 | -96.46571 | 8966 ft | 128 kts | 251° |
| 2026-04-22 09:13 | 58.23420 | -96.48132 | 8965 ft | 128 kts | 251° |
| 2026-04-22 09:13 | 58.23075 | -96.49668 | 8964 ft | 128 kts | 251° |
| 2026-04-22 09:13 | 58.22726 | -96.51224 | 8963 ft | 128 kts | 251° |
| 2026-04-22 09:14 | 58.22375 | -96.52782 | 8962 ft | 128 kts | 250° |
| 2026-04-22 09:14 | 58.22030 | -96.54319 | 8961 ft | 128 kts | 250° |
| 2026-04-22 09:14 | 58.21679 | -96.55878 | 8960 ft | 128 kts | 250° |
| 2026-04-22 09:14 | 58.21327 | -96.57439 | 8959 ft | 128 kts | 250° |
| 2026-04-22 09:15 | 58.20981 | -96.58975 | 8958 ft | 128 kts | 250° |
| 2026-04-22 09:15 | 58.20630 | -96.60532 | 8957 ft | 128 kts | 250° |
| 2026-04-22 09:15 | 58.20278 | -96.62087 | 8959 ft | 128 kts | 250° |
| 2026-04-22 09:15 | 58.19931 | -96.63624 | 8956 ft | 128 kts | 250° |
| 2026-04-22 09:16 | 58.19578 | -96.65184 | 8955 ft | 128 kts | 249° |
| 2026-04-22 09:16 | 58.19229 | -96.66726 | 8955 ft | 128 kts | 249° |
| 2026-04-22 09:16 | 58.18882 | -96.68261 | 8954 ft | 128 kts | 249° |
| 2026-04-22 09:16 | 58.18529 | -96.69817 | 8954 ft | 128 kts | 249° |
| 2026-04-22 09:17 | 58.18176 | -96.71371 | 8953 ft | 128 kts | 249° |
| 2026-04-22 09:17 | 58.17824 | -96.72925 | 8953 ft | 128 kts | 249° |
| 2026-04-22 09:17 | 58.17476 | -96.74453 | 8960 ft | 127 kts | 249° |
| 2026-04-22 09:17 | 58.17124 | -96.76000 | 8953 ft | 128 kts | 249° |
| 2026-04-22 09:18 | 58.16769 | -96.77560 | 8951 ft | 128 kts | 249° |
| 2026-04-22 09:18 | 58.16418 | -96.79104 | 8950 ft | 128 kts | 249° |
| 2026-04-22 09:18 | 58.16063 | -96.80662 | 8949 ft | 128 kts | 249° |
| 2026-04-22 09:18 | 58.15714 | -96.82191 | 8949 ft | 128 kts | 249° |
| 2026-04-22 09:19 | 58.15360 | -96.83746 | 8948 ft | 128 kts | 249° |
| 2026-04-22 09:19 | 58.15006 | -96.85296 | 8947 ft | 128 kts | 249° |
| 2026-04-22 09:19 | 58.14650 | -96.86852 | 8946 ft | 128 kts | 249° |
| 2026-04-22 09:19 | 58.14300 | -96.88380 | 8946 ft | 128 kts | 249° |
| 2026-04-22 09:20 | 58.13944 | -96.89936 | 8944 ft | 128 kts | 249° |
| 2026-04-22 09:20 | 58.13588 | -96.91492 | 8943 ft | 128 kts | 249° |
| 2026-04-22 09:20 | 58.13235 | -96.93032 | 8942 ft | 128 kts | 249° |
| 2026-04-22 09:20 | 58.12879 | -96.94585 | 8941 ft | 128 kts | 249° |
| 2026-04-22 09:21 | 58.12527 | -96.96121 | 8941 ft | 128 kts | 249° |
| 2026-04-22 09:21 | 58.12169 | -96.97677 | 8940 ft | 128 kts | 249° |
| 2026-04-22 09:21 | 58.11816 | -96.99214 | 8938 ft | 128 kts | 249° |
| 2026-04-22 09:21 | 58.11462 | -97.00754 | 8938 ft | 128 kts | 249° |
| 2026-04-22 09:22 | 58.11104 | -97.02308 | 8937 ft | 128 kts | 249° |
| 2026-04-22 09:22 | 58.10750 | -97.03844 | 8937 ft | 128 kts | 249° |
| 2026-04-22 09:22 | 58.10390 | -97.05407 | 8937 ft | 128 kts | 249° |
| 2026-04-22 09:22 | 58.10036 | -97.06941 | 8936 ft | 128 kts | 249° |
| 2026-04-22 09:23 | 58.09677 | -97.08495 | 8936 ft | 128 kts | 249° |
| 2026-04-22 09:23 | 58.09323 | -97.10026 | 8935 ft | 128 kts | 249° |
| 2026-04-22 09:23 | 58.08964 | -97.11575 | 8935 ft | 128 kts | 249° |
| 2026-04-22 09:23 | 58.08611 | -97.13105 | 8934 ft | 128 kts | 249° |
| 2026-04-22 09:24 | 58.08251 | -97.14658 | 8934 ft | 128 kts | 249° |
| 2026-04-22 09:24 | 58.07892 | -97.16206 | 8933 ft | 128 kts | 249° |
| 2026-04-22 09:24 | 58.07537 | -97.17738 | 8933 ft | 128 kts | 249° |
| 2026-04-22 09:24 | 58.07177 | -97.19291 | 8932 ft | 128 kts | 248° |
| 2026-04-22 09:25 | 58.06818 | -97.20838 | 8932 ft | 128 kts | 248° |
| 2026-04-22 09:25 | 58.06460 | -97.22379 | 8931 ft | 128 kts | 248° |
| 2026-04-22 09:25 | 58.06101 | -97.23923 | 8931 ft | 128 kts | 248° |
| 2026-04-22 09:25 | 58.05747 | -97.25447 | 8930 ft | 128 kts | 248° |
| 2026-04-22 09:26 | 58.05387 | -97.26989 | 8932 ft | 128 kts | 248° |
| 2026-04-22 09:26 | 58.05026 | -97.28538 | 8929 ft | 128 kts | 248° |
| 2026-04-22 09:26 | 58.04671 | -97.30057 | 8928 ft | 128 kts | 248° |
| 2026-04-22 09:26 | 58.04311 | -97.31604 | 8927 ft | 128 kts | 248° |
| 2026-04-22 09:27 | 58.03951 | -97.33145 | 8927 ft | 128 kts | 248° |
| 2026-04-22 09:27 | 58.03593 | -97.34675 | 8926 ft | 128 kts | 248° |
| 2026-04-22 09:27 | 58.03237 | -97.36197 | 8926 ft | 128 kts | 248° |
| 2026-04-22 09:27 | 58.02874 | -97.37751 | 8925 ft | 128 kts | 248° |
| 2026-04-22 09:28 | 58.02517 | -97.39275 | 8924 ft | 128 kts | 248° |
| 2026-04-22 09:28 | 58.02153 | -97.40823 | 8924 ft | 128 kts | 248° |
| 2026-04-22 09:28 | 58.01794 | -97.42355 | 8924 ft | 128 kts | 248° |
| 2026-04-22 09:28 | 58.01430 | -97.43903 | 8923 ft | 129 kts | 248° |
| 2026-04-22 09:29 | 58.01071 | -97.45431 | 8923 ft | 129 kts | 248° |
| 2026-04-22 09:29 | 58.00708 | -97.46976 | 8922 ft | 129 kts | 248° |
| 2026-04-22 09:29 | 58.00343 | -97.48528 | 8933 ft | 129 kts | 248° |
| 2026-04-22 09:29 | 57.99981 | -97.50067 | 8938 ft | 130 kts | 248° |
| 2026-04-22 09:30 | 57.99612 | -97.51637 | 8938 ft | 131 kts | 248° |
| 2026-04-22 09:30 | 57.99239 | -97.53222 | 8937 ft | 132 kts | 248° |
| 2026-04-22 09:30 | 57.98867 | -97.54806 | 8922 ft | 132 kts | 248° |
| 2026-04-22 09:30 | 57.98497 | -97.56373 | 8915 ft | 130 kts | 248° |
| 2026-04-22 09:31 | 57.98133 | -97.57915 | 8914 ft | 129 kts | 248° |
| 2026-04-22 09:31 | 57.97767 | -97.59460 | 8914 ft | 128 kts | 248° |
| 2026-04-22 09:31 | 57.97401 | -97.60998 | 8917 ft | 128 kts | 248° |
| 2026-04-22 09:31 | 57.97042 | -97.62514 | 8919 ft | 128 kts | 248° |
| 2026-04-22 09:32 | 57.96677 | -97.64053 | 8918 ft | 128 kts | 248° |
| 2026-04-22 09:32 | 57.96314 | -97.65581 | 8917 ft | 128 kts | 247° |
| 2026-04-22 09:32 | 57.95948 | -97.67124 | 8916 ft | 128 kts | 247° |
| 2026-04-22 09:32 | 57.95587 | -97.68645 | 8915 ft | 128 kts | 247° |
| 2026-04-22 09:33 | 57.95220 | -97.70192 | 8915 ft | 128 kts | 247° |
| 2026-04-22 09:33 | 57.94857 | -97.71719 | 8914 ft | 129 kts | 247° |
| 2026-04-22 09:33 | 57.94490 | -97.73261 | 8920 ft | 128 kts | 247° |
| 2026-04-22 09:33 | 57.94127 | -97.74786 | 8913 ft | 129 kts | 247° |
| 2026-04-22 09:34 | 57.93760 | -97.76326 | 8913 ft | 129 kts | 247° |
| 2026-04-22 09:34 | 57.93393 | -97.77867 | 8914 ft | 129 kts | 247° |
| 2026-04-22 09:34 | 57.93030 | -97.79386 | 8914 ft | 129 kts | 247° |
| 2026-04-22 09:35 | 57.92298 | -97.82452 | 8916 ft | 129 kts | 247° |
| 2026-04-22 09:35 | 57.91927 | -97.84004 | 8916 ft | 129 kts | 247° |
| 2026-04-22 09:35 | 57.91798 | -97.84544 | 8916 ft | 129 kts | 247° |
| 2026-04-22 09:35 | 57.91433 | -97.86065 | 8920 ft | 128 kts | 247° |
| 2026-04-22 09:36 | 57.91065 | -97.87605 | 8918 ft | 128 kts | 247° |
| 2026-04-22 09:36 | 57.90695 | -97.89145 | 8918 ft | 128 kts | 247° |
| 2026-04-22 09:36 | 57.90332 | -97.90660 | 8918 ft | 128 kts | 247° |
| 2026-04-22 09:36 | 57.89964 | -97.92195 | 8917 ft | 129 kts | 246° |
| 2026-04-22 09:37 | 57.89595 | -97.93726 | 8914 ft | 129 kts | 246° |
| 2026-04-22 09:37 | 57.89227 | -97.95252 | 8911 ft | 129 kts | 246° |
| 2026-04-22 09:37 | 57.88855 | -97.96795 | 8907 ft | 129 kts | 246° |
| 2026-04-22 09:37 | 57.88483 | -97.98338 | 8905 ft | 129 kts | 246° |
| 2026-04-22 09:38 | 57.88116 | -97.99863 | 8905 ft | 129 kts | 246° |
| 2026-04-22 09:38 | 57.87744 | -98.01405 | 8905 ft | 129 kts | 246° |
| 2026-04-22 09:38 | 57.87378 | -98.02921 | 8905 ft | 129 kts | 246° |
| 2026-04-22 09:38 | 57.87006 | -98.04459 | 8905 ft | 129 kts | 246° |
| 2026-04-22 09:39 | 57.86636 | -98.05993 | 8905 ft | 128 kts | 246° |
| 2026-04-22 09:39 | 57.86269 | -98.07512 | 8904 ft | 128 kts | 246° |
| 2026-04-22 09:39 | 57.85898 | -98.09044 | 8904 ft | 128 kts | 246° |
| 2026-04-22 09:39 | 57.85532 | -98.10558 | 8904 ft | 128 kts | 246° |
| 2026-04-22 09:40 | 57.85159 | -98.12096 | 8904 ft | 128 kts | 246° |
| 2026-04-22 09:40 | 57.84791 | -98.13614 | 8904 ft | 128 kts | 246° |
| 2026-04-22 09:40 | 57.84422 | -98.15133 | 8903 ft | 128 kts | 246° |
| 2026-04-22 09:40 | 57.84050 | -98.16668 | 8903 ft | 128 kts | 246° |
| 2026-04-22 09:41 | 57.83683 | -98.18177 | 8903 ft | 128 kts | 246° |
| 2026-04-22 09:41 | 57.83311 | -98.19706 | 8902 ft | 128 kts | 246° |
| 2026-04-22 09:41 | 57.82939 | -98.21235 | 8902 ft | 128 kts | 246° |
| 2026-04-22 09:41 | 57.82568 | -98.22762 | 8901 ft | 128 kts | 246° |
| 2026-04-22 09:42 | 57.82199 | -98.24274 | 8901 ft | 128 kts | 247° |
| 2026-04-22 09:42 | 57.81826 | -98.25803 | 8901 ft | 128 kts | 247° |
| 2026-04-22 09:42 | 57.81459 | -98.27309 | 8901 ft | 128 kts | 247° |
| 2026-04-22 09:42 | 57.81086 | -98.28839 | 8902 ft | 128 kts | 247° |
| 2026-04-22 09:43 | 57.80713 | -98.30363 | 8902 ft | 128 kts | 247° |
| 2026-04-22 09:43 | 57.80344 | -98.31873 | 8903 ft | 128 kts | 247° |
| 2026-04-22 09:43 | 57.79971 | -98.33400 | 8903 ft | 128 kts | 247° |
| 2026-04-22 09:43 | 57.79596 | -98.34931 | 8903 ft | 128 kts | 247° |
| 2026-04-22 09:44 | 57.79227 | -98.36437 | 8904 ft | 128 kts | 247° |
| 2026-04-22 09:44 | 57.78853 | -98.37962 | 8904 ft | 128 kts | 247° |
| 2026-04-22 09:44 | 57.78482 | -98.39471 | 8910 ft | 128 kts | 246° |
| 2026-04-22 09:44 | 57.78108 | -98.40996 | 8906 ft | 128 kts | 247° |
| 2026-04-22 09:45 | 57.77738 | -98.42503 | 8906 ft | 128 kts | 247° |
| 2026-04-22 09:45 | 57.77362 | -98.44031 | 8907 ft | 128 kts | 247° |
| 2026-04-22 09:45 | 57.76987 | -98.45556 | 8907 ft | 128 kts | 247° |
| 2026-04-22 09:45 | 57.76617 | -98.47060 | 8908 ft | 128 kts | 247° |
| 2026-04-22 09:46 | 57.76240 | -98.48592 | 8908 ft | 128 kts | 247° |
| 2026-04-22 09:46 | 57.75867 | -98.50105 | 8909 ft | 128 kts | 247° |
| 2026-04-22 09:46 | 57.75492 | -98.51626 | 8908 ft | 128 kts | 247° |
| 2026-04-22 09:46 | 57.75120 | -98.53131 | 8905 ft | 128 kts | 247° |
| 2026-04-22 09:47 | 57.74743 | -98.54657 | 8901 ft | 129 kts | 247° |
| 2026-04-22 09:47 | 57.74368 | -98.56175 | 8897 ft | 129 kts | 247° |
| 2026-04-22 09:47 | 57.73994 | -98.57689 | 8892 ft | 129 kts | 247° |
| 2026-04-22 09:47 | 57.73615 | -98.59219 | 8889 ft | 129 kts | 247° |
| 2026-04-22 09:48 | 57.73242 | -98.60724 | 8888 ft | 129 kts | 247° |
| 2026-04-22 09:48 | 57.72863 | -98.62252 | 8887 ft | 128 kts | 247° |
| 2026-04-22 09:48 | 57.72491 | -98.63755 | 8887 ft | 128 kts | 247° |
| 2026-04-22 09:48 | 57.72111 | -98.65283 | 8886 ft | 128 kts | 246° |
| 2026-04-22 09:49 | 57.71738 | -98.66785 | 8889 ft | 128 kts | 246° |
| 2026-04-22 09:49 | 57.71361 | -98.68301 | 8884 ft | 128 kts | 246° |
| 2026-04-22 09:49 | 57.70990 | -98.69798 | 8883 ft | 128 kts | 246° |
| 2026-04-22 09:49 | 57.70613 | -98.71312 | 8883 ft | 128 kts | 246° |
| 2026-04-22 09:50 | 57.70237 | -98.72823 | 8881 ft | 128 kts | 246° |
| 2026-04-22 09:50 | 57.69863 | -98.74323 | 8880 ft | 127 kts | 246° |
| 2026-04-22 09:50 | 57.69491 | -98.75815 | 8880 ft | 127 kts | 246° |
| 2026-04-22 09:50 | 57.69118 | -98.77312 | 8879 ft | 127 kts | 246° |
| 2026-04-22 09:51 | 57.68740 | -98.78824 | 8878 ft | 127 kts | 246° |
| 2026-04-22 09:51 | 57.68368 | -98.80312 | 8877 ft | 127 kts | 246° |
| 2026-04-22 09:51 | 57.67995 | -98.81805 | 8877 ft | 127 kts | 246° |
| 2026-04-22 09:51 | 57.67617 | -98.83315 | 8876 ft | 127 kts | 246° |
| 2026-04-22 09:52 | 57.67243 | -98.84808 | 8875 ft | 127 kts | 246° |
| 2026-04-22 09:52 | 57.66869 | -98.86300 | 8875 ft | 127 kts | 246° |
| 2026-04-22 09:52 | 57.66491 | -98.87807 | 8874 ft | 127 kts | 246° |
| 2026-04-22 09:52 | 57.66118 | -98.89294 | 8874 ft | 127 kts | 246° |
| 2026-04-22 09:53 | 57.65740 | -98.90800 | 8873 ft | 127 kts | 246° |
| 2026-04-22 09:53 | 57.65364 | -98.92295 | 8872 ft | 127 kts | 246° |
| 2026-04-22 09:53 | 57.64991 | -98.93780 | 8872 ft | 127 kts | 246° |
| 2026-04-22 09:53 | 57.64616 | -98.95271 | 8871 ft | 127 kts | 246° |
| 2026-04-22 09:54 | 57.64236 | -98.96779 | 8870 ft | 127 kts | 246° |
| 2026-04-22 09:54 | 57.63862 | -98.98267 | 8870 ft | 127 kts | 246° |
| 2026-04-22 09:54 | 57.63483 | -98.99766 | 8869 ft | 127 kts | 246° |
| 2026-04-22 09:54 | 57.63110 | -99.01249 | 8869 ft | 127 kts | 246° |
| 2026-04-22 09:55 | 57.62730 | -99.02753 | 8868 ft | 127 kts | 246° |
| 2026-04-22 09:55 | 57.62355 | -99.04240 | 8868 ft | 127 kts | 246° |
| 2026-04-22 09:55 | 57.61978 | -99.05731 | 8867 ft | 127 kts | 246° |
| 2026-04-22 09:55 | 57.61601 | -99.07224 | 8866 ft | 127 kts | 246° |
| 2026-04-22 09:56 | 57.61228 | -99.08694 | 8872 ft | 126 kts | 246° |
| 2026-04-22 09:56 | 57.60851 | -99.10184 | 8866 ft | 127 kts | 246° |
| 2026-04-22 09:56 | 57.60477 | -99.11658 | 8865 ft | 127 kts | 246° |
| 2026-04-22 09:56 | 57.60099 | -99.13150 | 8864 ft | 127 kts | 246° |
| 2026-04-22 09:57 | 57.59723 | -99.14629 | 8863 ft | 127 kts | 246° |
| 2026-04-22 09:57 | 57.59345 | -99.16121 | 8863 ft | 127 kts | 246° |
| 2026-04-22 09:57 | 57.58970 | -99.17595 | 8862 ft | 126 kts | 246° |
| 2026-04-22 09:57 | 57.58595 | -99.19067 | 8862 ft | 126 kts | 246° |
| 2026-04-22 09:58 | 57.58216 | -99.20558 | 8861 ft | 126 kts | 246° |
| 2026-04-22 09:58 | 57.58072 | -99.21123 | 8861 ft | 127 kts | 246° |
| 2026-04-22 09:58 | 57.57697 | -99.22593 | 8861 ft | 126 kts | 246° |
| 2026-04-22 09:58 | 57.57314 | -99.24097 | 8860 ft | 127 kts | 246° |
| 2026-04-22 09:59 | 57.56938 | -99.25572 | 8859 ft | 127 kts | 246° |
| 2026-04-22 09:59 | 57.56561 | -99.27048 | 8858 ft | 127 kts | 246° |
| 2026-04-22 09:59 | 57.56182 | -99.28534 | 8860 ft | 126 kts | 246° |
| 2026-04-22 09:59 | 57.55805 | -99.30006 | 8857 ft | 127 kts | 246° |
| 2026-04-22 10:00 | 57.55426 | -99.31490 | 8856 ft | 127 kts | 246° |
| 2026-04-22 10:00 | 57.55047 | -99.32973 | 8856 ft | 127 kts | 246° |
| 2026-04-22 10:00 | 57.54667 | -99.34455 | 8855 ft | 127 kts | 246° |
| 2026-04-22 10:00 | 57.54289 | -99.35930 | 8855 ft | 127 kts | 246° |
| 2026-04-22 10:01 | 57.53913 | -99.37398 | 8856 ft | 126 kts | 246° |
| 2026-04-22 10:01 | 57.53532 | -99.38880 | 8857 ft | 126 kts | 246° |
| 2026-04-22 10:01 | 57.53152 | -99.40362 | 8858 ft | 126 kts | 246° |
| 2026-04-22 10:01 | 57.52777 | -99.41821 | 8859 ft | 126 kts | 246° |
| 2026-04-22 10:02 | 57.52395 | -99.43307 | 8859 ft | 126 kts | 246° |
| 2026-04-22 10:02 | 57.52018 | -99.44770 | 8861 ft | 126 kts | 246° |
| 2026-04-22 10:02 | 57.51635 | -99.46258 | 8859 ft | 127 kts | 246° |
| 2026-04-22 10:02 | 57.51259 | -99.47722 | 8858 ft | 127 kts | 246° |
| 2026-04-22 10:03 | 57.50877 | -99.49203 | 8858 ft | 127 kts | 246° |
| 2026-04-22 10:03 | 57.50498 | -99.50672 | 8858 ft | 127 kts | 246° |
| 2026-04-22 10:03 | 57.50114 | -99.52158 | 8857 ft | 127 kts | 246° |
| 2026-04-22 10:03 | 57.49736 | -99.53622 | 8857 ft | 127 kts | 246° |
| 2026-04-22 10:04 | 57.49352 | -99.55108 | 8856 ft | 127 kts | 246° |
| 2026-04-22 10:04 | 57.48974 | -99.56568 | 8856 ft | 127 kts | 246° |
| 2026-04-22 10:04 | 57.48588 | -99.58060 | 8855 ft | 127 kts | 246° |
| 2026-04-22 10:04 | 57.48210 | -99.59521 | 8855 ft | 127 kts | 246° |
| 2026-04-22 10:05 | 57.47824 | -99.61011 | 8859 ft | 126 kts | 246° |
| 2026-04-22 10:05 | 57.47445 | -99.62469 | 8865 ft | 126 kts | 246° |
| 2026-04-22 10:05 | 57.47062 | -99.63944 | 8872 ft | 126 kts | 246° |
| 2026-04-22 10:05 | 57.46685 | -99.65396 | 8878 ft | 126 kts | 245° |
| 2026-04-22 10:06 | 57.46307 | -99.66849 | 8878 ft | 126 kts | 245° |
| 2026-04-22 10:06 | 57.45925 | -99.68320 | 8878 ft | 126 kts | 245° |
| 2026-04-22 10:06 | 57.45541 | -99.69795 | 8878 ft | 126 kts | 245° |
| 2026-04-22 10:06 | 57.45159 | -99.71265 | 8881 ft | 126 kts | 245° |
| 2026-04-22 10:07 | 57.44779 | -99.72725 | 8877 ft | 127 kts | 245° |
| 2026-04-22 10:07 | 57.44394 | -99.74202 | 8875 ft | 127 kts | 245° |
| 2026-04-22 10:07 | 57.44013 | -99.75665 | 8875 ft | 127 kts | 245° |
| 2026-04-22 10:07 | 57.43628 | -99.77140 | 8874 ft | 127 kts | 245° |
| 2026-04-22 10:08 | 57.43242 | -99.78618 | 8873 ft | 127 kts | 245° |
| 2026-04-22 10:08 | 57.42861 | -99.80077 | 8873 ft | 127 kts | 245° |
| 2026-04-22 10:08 | 57.42474 | -99.81557 | 8872 ft | 127 kts | 245° |
| 2026-04-22 10:08 | 57.42087 | -99.83035 | 8871 ft | 127 kts | 245° |
| 2026-04-22 10:09 | 57.41705 | -99.84497 | 8871 ft | 127 kts | 245° |
| 2026-04-22 10:09 | 57.41322 | -99.85957 | 8871 ft | 127 kts | 245° |
| 2026-04-22 10:09 | 57.40935 | -99.87431 | 8869 ft | 127 kts | 245° |
| 2026-04-22 10:09 | 57.40548 | -99.88907 | 8869 ft | 127 kts | 245° |
| 2026-04-22 10:10 | 57.40163 | -99.90375 | 8868 ft | 127 kts | 245° |
| 2026-04-22 10:10 | 57.39779 | -99.91836 | 8867 ft | 127 kts | 245° |
| 2026-04-22 10:10 | 57.39392 | -99.93309 | 8867 ft | 127 kts | 245° |
| 2026-04-22 10:10 | 57.39004 | -99.94782 | 8866 ft | 127 kts | 245° |
| 2026-04-22 10:11 | 57.38618 | -99.96249 | 8865 ft | 127 kts | 245° |
| 2026-04-22 10:11 | 57.38232 | -99.97712 | 8864 ft | 127 kts | 245° |
| 2026-04-22 10:11 | 57.37845 | -99.99182 | 8867 ft | 126 kts | 245° |
| 2026-04-22 10:11 | 57.37460 | -100.00640 | 8859 ft | 127 kts | 245° |
| 2026-04-22 10:12 | 57.37077 | -100.02092 | 8854 ft | 126 kts | 245° |
| 2026-04-22 10:12 | 57.36689 | -100.03558 | 8853 ft | 125 kts | 245° |
| 2026-04-22 10:12 | 57.36309 | -100.04993 | 8852 ft | 125 kts | 245° |
| 2026-04-22 10:12 | 57.35926 | -100.06440 | 8856 ft | 125 kts | 245° |
| 2026-04-22 10:13 | 57.35540 | -100.07895 | 8858 ft | 125 kts | 245° |
| 2026-04-22 10:13 | 57.35159 | -100.09335 | 8857 ft | 126 kts | 245° |
| 2026-04-22 10:13 | 57.34775 | -100.10783 | 8855 ft | 126 kts | 245° |
| 2026-04-22 10:13 | 57.34387 | -100.12248 | 8854 ft | 126 kts | 245° |
| 2026-04-22 10:14 | 57.34004 | -100.13695 | 8853 ft | 126 kts | 245° |
| 2026-04-22 10:14 | 57.33615 | -100.15161 | 8853 ft | 126 kts | 245° |
| 2026-04-22 10:14 | 57.33231 | -100.16609 | 8852 ft | 126 kts | 245° |
| 2026-04-22 10:14 | 57.32840 | -100.18080 | 8852 ft | 126 kts | 245° |
| 2026-04-22 10:15 | 57.32455 | -100.19530 | 8851 ft | 126 kts | 245° |
| 2026-04-22 10:15 | 57.32070 | -100.20978 | 8851 ft | 126 kts | 245° |
| 2026-04-22 10:15 | 57.31686 | -100.22420 | 8850 ft | 126 kts | 245° |
| 2026-04-22 10:15 | 57.31297 | -100.23875 | 8855 ft | 125 kts | 245° |
| 2026-04-22 10:16 | 57.30915 | -100.25307 | 8851 ft | 125 kts | 246° |
| 2026-04-22 10:16 | 57.30529 | -100.26752 | 8849 ft | 126 kts | 246° |
| 2026-04-22 10:16 | 57.30141 | -100.28210 | 8848 ft | 126 kts | 246° |
| 2026-04-22 10:16 | 57.29755 | -100.29652 | 8847 ft | 125 kts | 246° |
| 2026-04-22 10:17 | 57.29370 | -100.31094 | 8846 ft | 125 kts | 246° |
| 2026-04-22 10:17 | 57.28980 | -100.32552 | 8845 ft | 125 kts | 246° |
| 2026-04-22 10:17 | 57.28596 | -100.33988 | 8844 ft | 125 kts | 246° |
| 2026-04-22 10:17 | 57.28207 | -100.35440 | 8843 ft | 125 kts | 246° |
| 2026-04-22 10:18 | 57.27823 | -100.36873 | 8842 ft | 125 kts | 246° |
| 2026-04-22 10:18 | 57.27433 | -100.38326 | 8842 ft | 125 kts | 246° |
| 2026-04-22 10:18 | 57.27047 | -100.39762 | 8841 ft | 125 kts | 245° |
| 2026-04-22 10:18 | 57.26659 | -100.41208 | 8840 ft | 125 kts | 246° |
| 2026-04-22 10:19 | 57.26274 | -100.42642 | 8839 ft | 125 kts | 246° |
| 2026-04-22 10:19 | 57.25883 | -100.44093 | 8838 ft | 125 kts | 246° |
| 2026-04-22 10:19 | 57.25498 | -100.45521 | 8838 ft | 125 kts | 246° |
| 2026-04-22 10:19 | 57.25107 | -100.46974 | 8837 ft | 125 kts | 246° |
| 2026-04-22 10:20 | 57.24722 | -100.48405 | 8836 ft | 125 kts | 246° |
| 2026-04-22 10:20 | 57.24330 | -100.49857 | 8835 ft | 125 kts | 246° |
| 2026-04-22 10:20 | 57.23940 | -100.51307 | 8835 ft | 125 kts | 246° |
| 2026-04-22 10:20 | 57.23554 | -100.52737 | 8835 ft | 125 kts | 246° |
| 2026-04-22 10:21 | 57.23166 | -100.54172 | 8835 ft | 125 kts | 246° |
| 2026-04-22 10:21 | 57.22774 | -100.55624 | 8834 ft | 125 kts | 246° |
| 2026-04-22 10:21 | 57.22387 | -100.57056 | 8836 ft | 125 kts | 246° |
| 2026-04-22 10:21 | 57.21994 | -100.58508 | 8834 ft | 125 kts | 246° |
| 2026-04-22 10:22 | 57.21606 | -100.59938 | 8834 ft | 125 kts | 246° |
| 2026-04-22 10:22 | 57.21215 | -100.61379 | 8835 ft | 125 kts | 246° |
| 2026-04-22 10:22 | 57.20829 | -100.62805 | 8834 ft | 125 kts | 246° |
| 2026-04-22 10:22 | 57.20438 | -100.64246 | 8833 ft | 125 kts | 246° |
| 2026-04-22 10:23 | 57.20047 | -100.65688 | 8833 ft | 125 kts | 245° |
| 2026-04-22 10:23 | 57.19662 | -100.67109 | 8833 ft | 125 kts | 245° |
| 2026-04-22 10:23 | 57.19271 | -100.68547 | 8833 ft | 125 kts | 245° |
| 2026-04-22 10:23 | 57.18880 | -100.69987 | 8833 ft | 125 kts | 245° |
| 2026-04-22 10:24 | 57.18492 | -100.71413 | 8833 ft | 125 kts | 245° |
| 2026-04-22 10:24 | 57.18101 | -100.72849 | 8833 ft | 125 kts | 245° |
| 2026-04-22 10:24 | 57.17710 | -100.74284 | 8832 ft | 125 kts | 245° |
| 2026-04-22 10:24 | 57.17322 | -100.75707 | 8833 ft | 125 kts | 245° |
| 2026-04-22 10:25 | 57.16934 | -100.77130 | 8833 ft | 125 kts | 245° |
| 2026-04-22 10:25 | 57.16540 | -100.78571 | 8833 ft | 125 kts | 245° |
| 2026-04-22 10:25 | 57.16153 | -100.79988 | 8833 ft | 125 kts | 245° |
| 2026-04-22 10:25 | 57.15762 | -100.81420 | 8839 ft | 124 kts | 245° |
| 2026-04-22 10:26 | 57.15369 | -100.82857 | 8834 ft | 125 kts | 245° |
| 2026-04-22 10:26 | 57.14980 | -100.84277 | 8834 ft | 125 kts | 245° |
| 2026-04-22 10:26 | 57.14587 | -100.85712 | 8834 ft | 125 kts | 245° |
| 2026-04-22 10:26 | 57.14198 | -100.87130 | 8835 ft | 125 kts | 245° |
| 2026-04-22 10:27 | 57.13805 | -100.88565 | 8834 ft | 125 kts | 245° |
| 2026-04-22 10:27 | 57.13415 | -100.89985 | 8834 ft | 125 kts | 245° |
| 2026-04-22 10:27 | 57.13026 | -100.91402 | 8834 ft | 125 kts | 245° |
| 2026-04-22 10:27 | 57.12633 | -100.92835 | 8834 ft | 125 kts | 245° |
| 2026-04-22 10:28 | 57.12238 | -100.94271 | 8834 ft | 125 kts | 245° |
| 2026-04-22 10:28 | 57.11849 | -100.95686 | 8834 ft | 125 kts | 245° |
| 2026-04-22 10:28 | 57.11459 | -100.97101 | 8834 ft | 125 kts | 245° |
| 2026-04-22 10:28 | 57.11066 | -100.98528 | 8835 ft | 125 kts | 245° |
| 2026-04-22 10:29 | 57.10672 | -100.99957 | 8834 ft | 125 kts | 245° |
| 2026-04-22 10:29 | 57.10282 | -101.01372 | 8833 ft | 125 kts | 245° |
| 2026-04-22 10:29 | 57.09887 | -101.02805 | 8833 ft | 125 kts | 245° |
| 2026-04-22 10:29 | 57.09497 | -101.04215 | 8834 ft | 125 kts | 245° |
| 2026-04-22 10:30 | 57.09101 | -101.05650 | 8833 ft | 125 kts | 245° |
| 2026-04-22 10:30 | 57.08711 | -101.07062 | 8833 ft | 125 kts | 245° |
| 2026-04-22 10:30 | 57.08315 | -101.08493 | 8833 ft | 125 kts | 245° |
| 2026-04-22 10:30 | 57.07925 | -101.09903 | 8832 ft | 125 kts | 245° |
| 2026-04-22 10:31 | 57.07527 | -101.11340 | 8832 ft | 125 kts | 245° |
| 2026-04-22 10:31 | 57.07135 | -101.12753 | 8832 ft | 125 kts | 245° |
| 2026-04-22 10:31 | 57.06742 | -101.14172 | 8831 ft | 125 kts | 245° |
| 2026-04-22 10:31 | 57.06347 | -101.15596 | 8831 ft | 125 kts | 245° |
| 2026-04-22 10:32 | 57.05956 | -101.17006 | 8831 ft | 125 kts | 245° |
| 2026-04-22 10:32 | 57.05558 | -101.18436 | 8831 ft | 125 kts | 245° |
| 2026-04-22 10:32 | 57.05162 | -101.19862 | 8831 ft | 125 kts | 245° |
| 2026-04-22 10:32 | 57.04770 | -101.21270 | 8831 ft | 125 kts | 245° |
| 2026-04-22 10:33 | 57.04378 | -101.22678 | 8831 ft | 125 kts | 245° |
| 2026-04-22 10:33 | 57.03980 | -101.24107 | 8831 ft | 125 kts | 245° |
| 2026-04-22 10:33 | 57.03589 | -101.25513 | 8830 ft | 124 kts | 245° |
| 2026-04-22 10:33 | 57.03193 | -101.26932 | 8830 ft | 124 kts | 245° |
| 2026-04-22 10:34 | 57.02800 | -101.28339 | 8829 ft | 124 kts | 245° |
| 2026-04-22 10:34 | 57.02409 | -101.29742 | 8829 ft | 124 kts | 245° |
| 2026-04-22 10:34 | 57.02012 | -101.31164 | 8829 ft | 124 kts | 245° |
| 2026-04-22 10:34 | 57.01620 | -101.32566 | 8828 ft | 124 kts | 245° |
| 2026-04-22 10:35 | 57.01229 | -101.33965 | 8828 ft | 124 kts | 245° |
| 2026-04-22 10:35 | 57.00831 | -101.35384 | 8827 ft | 124 kts | 245° |
| 2026-04-22 10:35 | 57.00441 | -101.36778 | 8827 ft | 124 kts | 245° |
| 2026-04-22 10:35 | 57.00044 | -101.38196 | 8827 ft | 124 kts | 245° |
| 2026-04-22 10:36 | 56.99651 | -101.39594 | 8826 ft | 124 kts | 245° |
| 2026-04-22 10:36 | 56.99261 | -101.40987 | 8826 ft | 124 kts | 245° |
| 2026-04-22 10:36 | 56.98863 | -101.42403 | 8825 ft | 124 kts | 245° |
| 2026-04-22 10:36 | 56.98471 | -101.43801 | 8825 ft | 124 kts | 245° |
| 2026-04-22 10:37 | 56.98074 | -101.45213 | 8824 ft | 124 kts | 245° |
| 2026-04-22 10:37 | 56.97290 | -101.47999 | 8823 ft | 124 kts | 245° |
| 2026-04-22 10:37 | 56.96894 | -101.49405 | 8822 ft | 124 kts | 245° |
| 2026-04-22 10:38 | 56.96497 | -101.50812 | 8822 ft | 124 kts | 245° |
| 2026-04-22 10:38 | 56.96106 | -101.52199 | 8822 ft | 124 kts | 245° |
| 2026-04-22 10:38 | 56.95710 | -101.53605 | 8822 ft | 124 kts | 245° |
| 2026-04-22 10:38 | 56.95316 | -101.54998 | 8822 ft | 123 kts | 245° |
| 2026-04-22 10:39 | 56.94919 | -101.56403 | 8822 ft | 123 kts | 245° |
| 2026-04-22 10:39 | 56.94528 | -101.57787 | 8822 ft | 123 kts | 245° |
| 2026-04-22 10:39 | 56.94132 | -101.59189 | 8822 ft | 123 kts | 245° |
| 2026-04-22 10:39 | 56.93740 | -101.60573 | 8822 ft | 123 kts | 245° |
| 2026-04-22 10:40 | 56.93343 | -101.61975 | 8822 ft | 123 kts | 245° |
| 2026-04-22 10:40 | 56.92946 | -101.63374 | 8822 ft | 123 kts | 245° |
| 2026-04-22 10:40 | 56.92555 | -101.64754 | 8823 ft | 123 kts | 245° |
| 2026-04-22 10:40 | 56.92162 | -101.66139 | 8823 ft | 123 kts | 244° |
| 2026-04-22 10:41 | 56.91765 | -101.67541 | 8823 ft | 123 kts | 244° |
| 2026-04-22 10:41 | 56.91368 | -101.68938 | 8823 ft | 123 kts | 244° |
| 2026-04-22 10:41 | 56.90976 | -101.70316 | 8823 ft | 123 kts | 244° |
| 2026-04-22 10:41 | 56.90578 | -101.71716 | 8824 ft | 123 kts | 244° |
| 2026-04-22 10:42 | 56.90182 | -101.73109 | 8824 ft | 123 kts | 244° |
| 2026-04-22 10:42 | 56.89790 | -101.74485 | 8824 ft | 123 kts | 244° |
| 2026-04-22 10:42 | 56.89391 | -101.75883 | 8824 ft | 123 kts | 244° |
| 2026-04-22 10:42 | 56.88996 | -101.77263 | 8824 ft | 123 kts | 244° |
| 2026-04-22 10:43 | 56.88597 | -101.78661 | 8824 ft | 123 kts | 244° |
| 2026-04-22 10:43 | 56.88204 | -101.80035 | 8825 ft | 123 kts | 244° |
| 2026-04-22 10:43 | 56.87804 | -101.81436 | 8824 ft | 123 kts | 244° |
| 2026-04-22 10:43 | 56.87411 | -101.82809 | 8824 ft | 123 kts | 244° |
| 2026-04-22 10:44 | 56.87010 | -101.84208 | 8833 ft | 122 kts | 244° |
| 2026-04-22 10:44 | 56.86616 | -101.85583 | 8825 ft | 123 kts | 244° |
| 2026-04-22 10:44 | 56.86216 | -101.86983 | 8824 ft | 123 kts | 244° |
| 2026-04-22 10:44 | 56.85823 | -101.88356 | 8824 ft | 123 kts | 244° |
| 2026-04-22 10:45 | 56.85422 | -101.89753 | 8823 ft | 123 kts | 244° |
| 2026-04-22 10:45 | 56.85024 | -101.91145 | 8822 ft | 123 kts | 245° |
| 2026-04-22 10:45 | 56.84630 | -101.92519 | 8821 ft | 123 kts | 245° |
| 2026-04-22 10:45 | 56.84230 | -101.93916 | 8820 ft | 123 kts | 245° |
| 2026-04-22 10:46 | 56.83833 | -101.95300 | 8819 ft | 123 kts | 244° |
| 2026-04-22 10:46 | 56.83435 | -101.96684 | 8819 ft | 123 kts | 244° |
| 2026-04-22 10:46 | 56.83038 | -101.98066 | 8819 ft | 123 kts | 244° |
| 2026-04-22 10:46 | 56.82636 | -101.99461 | 8819 ft | 123 kts | 244° |
| 2026-04-22 10:47 | 56.82239 | -102.00841 | 8818 ft | 123 kts | 244° |
| 2026-04-22 10:47 | 56.81838 | -102.02233 | 8818 ft | 123 kts | 244° |
| 2026-04-22 10:47 | 56.81442 | -102.03607 | 8818 ft | 123 kts | 245° |
| 2026-04-22 10:47 | 56.81044 | -102.04987 | 8806 ft | 123 kts | 244° |
| 2026-04-22 10:48 | 56.80644 | -102.06369 | 8799 ft | 121 kts | 244° |
| 2026-04-22 10:48 | 56.80253 | -102.07717 | 8798 ft | 120 kts | 244° |